Station info - map view · info · telemetry · weather · raw · status · beacons · messages · bulletins · browse · moving · my account
Callsign, ship name or locator: Clear       
It is possible to search using wildcards (*?) after a prefix. Example: OH*
APRS station IZ1KGH - show graphs
Map loading...
Comment: 145.350MHz Arona la Maggiore
Mic-E message: Returning
Location: 45°35.74' N 9°30.05' E - locator JN45SO02CX - show map - static map
0.4 miles Northeast bearing 29° from Grezzago, Province of Milan, Lombardy, Italy [?]
1.1 miles Southwest bearing 241° from Trezzo sull'Adda, Province of Milan, Lombardy, Italy
17.6 miles Northeast bearing 59° from Milan, Province of Milan, Lombardy, Italy
73.3 miles West bearing 279° from Verona, Provincia di Verona, Veneto, Italy
Last position: 2020-01-03 09:22:15 EST (17d 12h11m ago)
2020-01-03 15:22:15 CET local time at Grezzago, Italy [?]
Altitude: 587 ft
Course: 245°
Speed: 70 MPH
Device: Yaesu: FTM-400DR (rig)
Last path: IZ1KGH>T53UW4 via WIDE1-1,WIDE2-1,qAR,IR2AL (good)
Positions stored: 1475
Other SSIDs: IZ1KGH-1 IZ1KGH-7 IZ1KGH-9 IZ1KGH-ND
Stations near current position of IZ1KGH - show more
callsign distance last heard - EST      callsign distance last heard - EST
IK2CJJ0.9 miles 219°2020-01-19 16:12:06 IK2CJJ-10.9 miles 219°2020-01-19 15:30:21
IK2ILJ-R13.0 miles 9°2020-01-20 21:33:02 IK2SOB3.5 miles 333°2020-01-09 16:05:48
IW2JBB3.7 miles 104°2020-01-09 14:43:28 IK2ILJ-103.7 miles 32°2020-01-20 21:22:31
IW2DBC-13.8 miles 328°2020-01-11 05:40:08 IW2DBC3.8 miles 328°2020-01-18 12:49:38
IZ2CPO4.2 miles 83°2020-01-19 03:53:57 IU2MQD4.6 miles 173°2019-12-28 17:12:24
IW2JBB-14.6 miles 170°2020-01-09 03:16:21 EL-IQ2XN5.8 miles 237°2020-01-20 21:29:51
IZ2NBD-96.1 miles 223°2020-01-17 08:08:23 IW2IBG-26.1 miles 51°2020-01-18 02:26:21
IW2JBB-96.4 miles 255°2020-01-04 11:42:00 IU2NAF-76.5 miles 344°2020-01-20 11:44:55
IZ2NBD-ND6.5 miles 229°2020-01-20 17:52:40 IZ2NBD-H36.7 miles 227°2020-01-20 08:32:12
IZ2NBD-16.8 miles 227°2020-01-17 11:38:24 IU2NAF-H06.8 miles 349°2020-01-16 16:30:49
Stations which heard IZ1KGH directly on radio –
callsign pkts first heard - EST last heard longest (tx => rx) longest at - EST
IR2BZ 8 2020-01-03 08:47:47 2020-01-03 09:16:12 JN45TP > JN45XO 16.9 miles 105° 2020-01-03 09:16:12
IR2T 13 2020-01-03 07:21:01 2020-01-03 08:22:16 JN55BU > JN56EB 21.0 miles 36° 2020-01-03 08:22:16
IK2EXH 1 2020-01-03 08:39:43 2020-01-03 08:39:43 JN45XS > JN45OH 50.1 miles 228° 2020-01-03 08:39:43
IQ2ER 1 2020-01-03 09:10:05 2020-01-03 09:10:05 JN45UP > JN45OT 26.3 miles 293° 2020-01-03 09:10:05
IR2S 5 2020-01-03 09:06:03 2020-01-03 09:18:13 JN45TP > JN55DQ 32.7 miles 85° 2020-01-03 09:18:13
IR2DF 7 2020-01-03 08:04:03 2020-01-03 08:37:42 JN55DX > JN55AS 20.7 miles 224° 2020-01-03 08:04:03
IZ2UQD-11 1 2020-01-03 08:12:13 2020-01-03 08:12:13 JN55CV > JN55DW 3.8 miles 72° 2020-01-03 08:12:13
IR2DG 10 2020-01-03 07:21:01 2020-01-03 07:42:44 JN56ED > JN56FF 8.8 miles 50° 2020-01-03 07:42:44
IK2CHZ-12 1 2020-01-03 08:57:59 2020-01-03 08:57:59 JN45WQ > JN45UI 24.2 miles 198° 2020-01-03 08:57:59
IR2BY 5 2020-01-03 08:22:16 2020-01-03 08:35:41 JN55BU > JN55BQ 9.2 miles 187° 2020-01-03 08:22:16
IR2UCL 6 2020-01-03 08:43:45 2020-01-03 09:18:13 JN45WS > JN45UP 13.5 miles 237° 2020-01-03 08:43:45
IR2UEZ 1 2020-01-03 08:41:44 2020-01-03 08:41:44 JN45XS > JN45JP 55.8 miles 261° 2020-01-03 08:41:44
IR2UGU 2 2020-01-03 07:37:26 2020-01-03 07:44:45 JN56ED > JN46WE 21.7 miles 278° 2020-01-03 07:44:45
IR2DE 13 2020-01-03 07:21:01 2020-01-03 07:49:54 JN56FF > JN56EE 6.3 miles 226° 2020-01-03 07:21:01
IR2AL 1 2020-01-03 09:22:15 2020-01-03 09:22:15 JN45SO > JN45OL 16.4 miles 242° 2020-01-03 09:22:15
IZ2DDY 5 2020-01-03 08:35:44 2020-01-03 09:22:19 JN45XS > JN45SH 40.3 miles 215° 2020-01-03 08:35:44
IR2BP 5 2020-01-03 08:51:50 2020-01-03 09:22:15 JN45SO > JN55DN 38.1 miles 95° 2020-01-03 09:22:15

Only position packets which were originated by the station are shown here. The range statistics show some extra long hops, because some digipeaters do not correctly add themselves to the digipeater path. Please check the raw packets.
About this site
This page shows real-time information collected from the Automatic Position Reporting System Internet network (APRS-IS). APRS is used by amateur (ham) radio operators to transmit real-time position information, weather data, telemetry and messages over the radio. A vehicle equipped with a GPS receiver, a VHF transmitter or HF transceiver and a small computer device called a tracker transmits it's location, speed and course in a small data packet, which is then received by a nearby iGate receiving site which forwards the packet on the Internet. Systems connected to the Internet can send information on the APRS-IS without a radio transmitter, or collect and display information transmitted anywhere in the world.
User guide · FAQ · Blog · Discussion group · Linking to aprs.fi · AIS sites · Service status · Database statistics · Advertising on aprs.fi · Technical details · API · Change log · Planned changes · Credits and thanks · Terms Of Service · iPhone/iPad APRS